Main page
METAR-TAF:

METAR-TAF

Airports :

Yap International Airport

Yap, Micronesia

latitude: 09-29N, longitude: 138-05E, elevation: 28 m

Current weather observation

The report was made 40 minutes ago, at 04:50 UTC
Wind 10 kt from the East
Temperature 32°C
Humidity 63%
Pressure 1010 hPa
Visibility: 19.3 km
Few clouds at a height of 1800 ft
Scattered clouds at a height of 30000 ft

METAR: PTYA 240450Z 09010KT 12SM FEW018 SCT300 32/24 A2982 RMK SLP098 T03240243

Time: 15:30 (05:30 UTC)

Forecast

The report was made 6 hours and 5 minutes ago, at 23:25 UTC
Forecast valid from 24 at 00 UTC to 24 at 24 UTC
Wind 10 kt from the East/Northeast
Visibility: 10 km
Scattered clouds at a height of 1600 ft

TAF: PTYA 232325Z 2400/2424 07010KT P6SM SCT016

Weather observations and forecasts of more than 4000 airports (METAR and TAF reports).

The available stations are represented by yellow and red dots on the map.

Hover mouse over dot to see the name of the station.

Then click to see weather observations and forecasts.

To change the map : click on the green buttons with a black cross to zoom in, on the green button with a dash to zoom out, or on the green arrows for adjacent maps.


METAR-TAF: